sensor_id;sensor_type;location;lat;lon;timestamp;pressure;altitude;pressure_sealevel;temperature;humidity
5651;BME280;40241;52.684;9.758;2022-09-24T00:00:35;101116.16;;;15.86;58.91
5651;BME280;40241;52.684;9.758;2022-09-24T00:03:00;101109.34;;;15.87;58.63
5651;BME280;40241;52.684;9.758;2022-09-24T00:05:26;101115.91;;;15.84;58.58
5651;BME280;40241;52.684;9.758;2022-09-24T00:07:51;101112.16;;;15.81;58.71
5651;BME280;40241;52.684;9.758;2022-09-24T00:10:16;101114.00;;;15.73;58.75
5651;BME280;40241;52.684;9.758;2022-09-24T00:12:42;101116.75;;;15.73;58.81
5651;BME280;40241;52.684;9.758;2022-09-24T00:15:07;101103.41;;;15.71;58.86
5651;BME280;40241;52.684;9.758;2022-09-24T00:17:33;101113.25;;;15.72;58.88
5651;BME280;40241;52.684;9.758;2022-09-24T00:19:58;101105.44;;;15.71;58.96
5651;BME280;40241;52.684;9.758;2022-09-24T00:22:23;101100.19;;;15.67;59.00
5651;BME280;40241;52.684;9.758;2022-09-24T00:24:49;101102.72;;;15.65;58.96
5651;BME280;40241;52.684;9.758;2022-09-24T00:27:32;101098.72;;;15.61;58.97
5651;BME280;40241;52.684;9.758;2022-09-24T00:29:58;101092.69;;;15.57;59.05
5651;BME280;40241;52.684;9.758;2022-09-24T00:32:23;101094.47;;;15.54;59.17
5651;BME280;40241;52.684;9.758;2022-09-24T00:34:49;101093.25;;;15.50;59.20
5651;BME280;40241;52.684;9.758;2022-09-24T00:37:18;101089.72;;;15.49;59.29
5651;BME280;40241;52.684;9.758;2022-09-24T00:39:44;101089.94;;;15.51;59.33
5651;BME280;40241;52.684;9.758;2022-09-24T00:42:13;101084.41;;;15.51;59.32
5651;BME280;40241;52.684;9.758;2022-09-24T00:47:27;101088.19;;;15.54;60.09
5651;BME280;40241;52.684;9.758;2022-09-24T00:52:25;101085.41;;;15.54;59.42
5651;BME280;40241;52.684;9.758;2022-09-24T00:54:50;101079.84;;;15.54;59.41
5651;BME280;40241;52.684;9.758;2022-09-24T00:57:18;101074.59;;;15.50;59.42
5651;BME280;40241;52.684;9.758;2022-09-24T00:59:43;101087.47;;;15.48;59.51
5651;BME280;40241;52.684;9.758;2022-09-24T01:02:09;101077.13;;;15.43;59.69
5651;BME280;40241;52.684;9.758;2022-09-24T01:04:35;101075.91;;;15.38;59.54
5651;BME280;40241;52.684;9.758;2022-09-24T01:07:00;101076.66;;;15.39;59.67
5651;BME280;40241;52.684;9.758;2022-09-24T01:09:26;101077.19;;;15.37;59.75
5651;BME280;40241;52.684;9.758;2022-09-24T01:12:14;101069.38;;;15.36;60.70
5651;BME280;40241;52.684;9.758;2022-09-24T01:18:15;101063.31;;;15.37;60.09
5651;BME280;40241;52.684;9.758;2022-09-24T01:28:04;101071.84;;;15.45;60.01
5651;BME280;40241;52.684;9.758;2022-09-24T01:30:38;101067.31;;;15.47;59.89
5651;BME280;40241;52.684;9.758;2022-09-24T01:33:10;101064.22;;;15.51;59.98
5651;BME280;40241;52.684;9.758;2022-09-24T01:35:41;101067.75;;;15.51;59.94
5651;BME280;40241;52.684;9.758;2022-09-24T01:38:15;101060.19;;;15.52;59.96
5651;BME280;40241;52.684;9.758;2022-09-24T01:40:42;101065.75;;;15.52;59.80
5651;BME280;40241;52.684;9.758;2022-09-24T01:43:10;101062.50;;;15.48;59.99
5651;BME280;40241;52.684;9.758;2022-09-24T01:45:37;101058.22;;;15.47;60.04
5651;BME280;40241;52.684;9.758;2022-09-24T01:48:04;101055.44;;;15.47;60.04
5651;BME280;40241;52.684;9.758;2022-09-24T01:50:44;101058.44;;;15.49;60.55
5651;BME280;40241;52.684;9.758;2022-09-24T01:53:19;101055.91;;;15.51;60.31
5651;BME280;40241;52.684;9.758;2022-09-24T01:55:49;101057.97;;;15.50;60.20
5651;BME280;40241;52.684;9.758;2022-09-24T01:58:29;101059.69;;;15.53;60.58
5651;BME280;40241;52.684;9.758;2022-09-24T02:01:02;101054.91;;;15.54;60.34
5651;BME280;40241;52.684;9.758;2022-09-24T02:03:34;101063.97;;;15.54;60.26
5651;BME280;40241;52.684;9.758;2022-09-24T02:06:04;101061.97;;;15.55;60.27
5651;BME280;40241;52.684;9.758;2022-09-24T02:08:38;101057.91;;;15.56;60.38
5651;BME280;40241;52.684;9.758;2022-09-24T02:11:15;101066.22;;;15.56;60.50
5651;BME280;40241;52.684;9.758;2022-09-24T02:13:54;101062.69;;;15.55;60.29
5651;BME280;40241;52.684;9.758;2022-09-24T02:16:26;101058.94;;;15.53;60.39
5651;BME280;40241;52.684;9.758;2022-09-24T02:18:56;101062.97;;;15.52;60.29
5651;BME280;40241;52.684;9.758;2022-09-24T02:21:24;101058.19;;;15.52;60.20
5651;BME280;40241;52.684;9.758;2022-09-24T02:24:02;101064.50;;;15.53;60.50
5651;BME280;40241;52.684;9.758;2022-09-24T02:26:29;101059.22;;;15.49;60.33
5651;BME280;40241;52.684;9.758;2022-09-24T02:28:55;101060.25;;;15.46;60.41
5651;BME280;40241;52.684;9.758;2022-09-24T02:31:29;101062.03;;;15.44;60.99
5651;BME280;40241;52.684;9.758;2022-09-24T02:33:56;101059.75;;;15.42;60.57
5651;BME280;40241;52.684;9.758;2022-09-24T02:36:42;101054.94;;;15.43;60.57
5651;BME280;40241;52.684;9.758;2022-09-24T02:39:08;101058.75;;;15.40;60.71
5651;BME280;40241;52.684;9.758;2022-09-24T02:41:33;101052.69;;;15.41;60.67
5651;BME280;40241;52.684;9.758;2022-09-24T02:44:00;101049.69;;;15.39;60.78
5651;BME280;40241;52.684;9.758;2022-09-24T02:46:25;101048.19;;;15.38;60.79
5651;BME280;40241;52.684;9.758;2022-09-24T02:48:50;101052.47;;;15.39;60.92
5651;BME280;40241;52.684;9.758;2022-09-24T02:51:16;101055.00;;;15.37;60.97
5651;BME280;40241;52.684;9.758;2022-09-24T02:53:41;101048.19;;;15.38;60.95
5651;BME280;40241;52.684;9.758;2022-09-24T02:56:07;101053.97;;;15.40;60.93
5651;BME280;40241;52.684;9.758;2022-09-24T02:58:33;101052.69;;;15.41;60.94
5651;BME280;40241;52.684;9.758;2022-09-24T03:00:58;101044.88;;;15.40;60.95
5651;BME280;40241;52.684;9.758;2022-09-24T03:03:24;101047.41;;;15.38;60.99
5651;BME280;40241;52.684;9.758;2022-09-24T03:05:50;101042.41;;;15.36;61.00
5651;BME280;40241;52.684;9.758;2022-09-24T03:08:17;101042.41;;;15.36;60.95
5651;BME280;40241;52.684;9.758;2022-09-24T03:10:42;101043.69;;;15.35;61.16
5651;BME280;40241;52.684;9.758;2022-09-24T03:13:08;101038.63;;;15.34;61.12
5651;BME280;40241;52.684;9.758;2022-09-24T03:15:34;101043.41;;;15.33;61.11
5651;BME280;40241;52.684;9.758;2022-09-24T03:18:00;101041.41;;;15.34;61.24
5651;BME280;40241;52.684;9.758;2022-09-24T03:20:25;101036.63;;;15.34;61.35
5651;BME280;40241;52.684;9.758;2022-09-24T03:22:50;101045.69;;;15.35;61.23
5651;BME280;40241;52.684;9.758;2022-09-24T03:25:17;101033.09;;;15.34;61.15
5651;BME280;40241;52.684;9.758;2022-09-24T03:27:42;101032.84;;;15.32;61.30
5651;BME280;40241;52.684;9.758;2022-09-24T03:30:08;101035.38;;;15.30;61.32
5651;BME280;40241;52.684;9.758;2022-09-24T03:32:51;101029.09;;;15.29;61.33
5651;BME280;40241;52.684;9.758;2022-09-24T03:35:17;101024.81;;;15.28;61.51
5651;BME280;40241;52.684;9.758;2022-09-24T03:37:43;101011.47;;;15.27;61.49
5651;BME280;40241;52.684;9.758;2022-09-24T03:40:09;101016.50;;;15.28;61.43
5651;BME280;40241;52.684;9.758;2022-09-24T03:42:34;101013.75;;;15.28;61.37
5651;BME280;40241;52.684;9.758;2022-09-24T03:45:00;101015.00;;;15.27;61.45
5651;BME280;40241;52.684;9.758;2022-09-24T03:47:26;101021.06;;;15.26;61.55
5651;BME280;40241;52.684;9.758;2022-09-24T03:49:51;101012.75;;;15.26;61.53
5651;BME280;40241;52.684;9.758;2022-09-24T03:52:17;101014.75;;;15.25;61.62
5651;BME280;40241;52.684;9.758;2022-09-24T03:54:43;101011.47;;;15.27;61.64
5651;BME280;40241;52.684;9.758;2022-09-24T03:57:08;101013.75;;;15.28;61.61
5651;BME280;40241;52.684;9.758;2022-09-24T03:59:34;101016.50;;;15.28;61.70
5651;BME280;40241;52.684;9.758;2022-09-24T04:01:59;101014.50;;;15.29;61.66
5651;BME280;40241;52.684;9.758;2022-09-24T04:04:24;101003.16;;;15.27;61.67
5651;BME280;40241;52.684;9.758;2022-09-24T04:06:49;101003.66;;;15.25;61.69
5651;BME280;40241;52.684;9.758;2022-09-24T04:09:16;100999.66;;;15.26;61.79
5651;BME280;40241;52.684;9.758;2022-09-24T04:11:42;100995.88;;;15.24;61.73
5651;BME280;40241;52.684;9.758;2022-09-24T04:14:07;101001.94;;;15.22;61.81
5651;BME280;40241;52.684;9.758;2022-09-24T04:16:34;100989.09;;;15.19;61.82
5651;BME280;40241;52.684;9.758;2022-09-24T04:19:00;100987.59;;;15.18;61.78
5651;BME280;40241;52.684;9.758;2022-09-24T04:21:26;100985.34;;;15.17;61.85
5651;BME280;40241;52.684;9.758;2022-09-24T04:23:51;100978.31;;;15.16;61.93
5651;BME280;40241;52.684;9.758;2022-09-24T04:26:16;100987.66;;;15.13;62.04
5651;BME280;40241;52.684;9.758;2022-09-24T04:28:42;100980.59;;;15.12;62.08
5651;BME280;40241;52.684;9.758;2022-09-24T04:31:07;100987.41;;;15.11;61.92
5651;BME280;40241;52.684;9.758;2022-09-24T04:33:33;100987.41;;;15.11;61.90
5651;BME280;40241;52.684;9.758;2022-09-24T04:35:58;100987.41;;;15.11;62.10
5651;BME280;40241;52.684;9.758;2022-09-24T04:38:24;100986.91;;;15.12;62.13
5651;BME280;40241;52.684;9.758;2022-09-24T04:40:49;100982.34;;;15.15;62.12
5651;BME280;40241;52.684;9.758;2022-09-24T04:43:14;100981.81;;;15.16;62.13
5651;BME280;40241;52.684;9.758;2022-09-24T04:45:41;100992.19;;;15.16;62.12
5651;BME280;40241;52.684;9.758;2022-09-24T04:48:09;100988.88;;;15.17;62.00
5651;BME280;40241;52.684;9.758;2022-09-24T04:50:35;100990.88;;;15.17;62.16
5651;BME280;40241;52.684;9.758;2022-09-24T04:53:03;100980.03;;;15.19;62.15
5651;BME280;40241;52.684;9.758;2022-09-24T04:55:28;100988.13;;;15.17;62.13
5651;BME280;40241;52.684;9.758;2022-09-24T04:57:57;101000.72;;;15.18;62.21
5651;BME280;40241;52.684;9.758;2022-09-24T05:00:23;100996.19;;;15.15;62.19
5651;BME280;40241;52.684;9.758;2022-09-24T05:02:58;100989.91;;;15.14;62.43
5651;BME280;40241;52.684;9.758;2022-09-24T05:05:25;100990.41;;;15.13;62.16
5651;BME280;40241;52.684;9.758;2022-09-24T05:07:51;100990.72;;;15.09;62.25
5651;BME280;40241;52.684;9.758;2022-09-24T05:10:17;100989.94;;;15.09;62.36
5651;BME280;40241;52.684;9.758;2022-09-24T05:12:42;100991.22;;;15.08;62.21
5651;BME280;40241;52.684;9.758;2022-09-24T05:15:08;100990.44;;;15.07;62.22
5651;BME280;40241;52.684;9.758;2022-09-24T05:17:37;100991.22;;;15.08;62.15
5651;BME280;40241;52.684;9.758;2022-09-24T05:20:03;100992.50;;;15.07;62.33
5651;BME280;40241;52.684;9.758;2022-09-24T05:22:29;100975.63;;;15.05;62.32
5651;BME280;40241;52.684;9.758;2022-09-24T05:24:55;100981.44;;;15.01;62.42
5651;BME280;40241;52.684;9.758;2022-09-24T05:27:20;100977.41;;;15.02;62.37
5651;BME280;40241;52.684;9.758;2022-09-24T05:29:47;100994.03;;;15.02;62.54
5651;BME280;40241;52.684;9.758;2022-09-24T05:32:15;100988.50;;;15.02;62.45
5651;BME280;40241;52.684;9.758;2022-09-24T05:34:43;100983.72;;;15.02;62.47
5651;BME280;40241;52.684;9.758;2022-09-24T05:37:09;100989.47;;;15.05;62.47
5651;BME280;40241;52.684;9.758;2022-09-24T05:39:34;100998.75;;;15.07;62.42
5651;BME280;40241;52.684;9.758;2022-09-24T05:42:00;100992.72;;;15.09;62.69
5651;BME280;40241;52.684;9.758;2022-09-24T05:44:28;100994.22;;;15.10;62.64
5651;BME280;40241;52.684;9.758;2022-09-24T05:46:55;100991.69;;;15.12;62.43
5651;BME280;40241;52.684;9.758;2022-09-24T05:49:21;100990.19;;;15.11;62.61
5651;BME280;40241;52.684;9.758;2022-09-24T05:51:49;100995.72;;;15.11;62.66
5651;BME280;40241;52.684;9.758;2022-09-24T05:54:16;101001.28;;;15.11;62.58
5651;BME280;40241;52.684;9.758;2022-09-24T05:56:42;100994.69;;;15.14;62.56
5651;BME280;40241;52.684;9.758;2022-09-24T05:59:07;101008.03;;;15.15;62.55
5651;BME280;40241;52.684;9.758;2022-09-24T06:01:33;101004.00;;;15.16;62.55
5651;BME280;40241;52.684;9.758;2022-09-24T06:03:59;100997.72;;;15.16;62.58
5651;BME280;40241;52.684;9.758;2022-09-24T06:06:25;101007.53;;;15.17;62.54
5651;BME280;40241;52.684;9.758;2022-09-24T06:08:51;101016.59;;;15.17;62.70
5651;BME280;40241;52.684;9.758;2022-09-24T06:11:17;101007.22;;;15.20;62.73
5651;BME280;40241;52.684;9.758;2022-09-24T06:13:43;101016.53;;;15.23;62.72
5651;BME280;40241;52.684;9.758;2022-09-24T06:16:10;101006.44;;;15.25;62.74
5651;BME280;40241;52.684;9.758;2022-09-24T06:18:38;101014.22;;;15.27;62.78
5651;BME280;40241;52.684;9.758;2022-09-24T06:21:15;101013.50;;;15.26;62.98
5651;BME280;40241;52.684;9.758;2022-09-24T06:23:42;101049.31;;;15.24;62.85
5651;BME280;40241;52.684;9.758;2022-09-24T06:26:10;101013.75;;;15.28;63.03
5651;BME280;40241;52.684;9.758;2022-09-24T06:28:37;101004.91;;;15.30;62.99
5651;BME280;40241;52.684;9.758;2022-09-24T06:31:03;101014.72;;;15.31;63.01
5651;BME280;40241;52.684;9.758;2022-09-24T06:33:29;101020.28;;;15.31;62.94
5651;BME280;40241;52.684;9.758;2022-09-24T06:35:58;101020.75;;;15.35;63.10
5651;BME280;40241;52.684;9.758;2022-09-24T06:38:23;101026.00;;;15.38;62.97
5651;BME280;40241;52.684;9.758;2022-09-24T06:40:49;101025.72;;;15.42;63.00
5651;BME280;40241;52.684;9.758;2022-09-24T06:43:15;101035.03;;;15.44;62.97
5651;BME280;40241;52.684;9.758;2022-09-24T06:45:42;101027.00;;;15.46;63.01
5651;BME280;40241;52.684;9.758;2022-09-24T06:48:09;101027.44;;;15.50;63.00
5651;BME280;40241;52.684;9.758;2022-09-24T06:50:38;101024.91;;;15.52;63.01
5651;BME280;40241;52.684;9.758;2022-09-24T06:53:04;101029.41;;;15.55;62.96
5651;BME280;40241;52.684;9.758;2022-09-24T06:55:30;101027.38;;;15.56;63.03
5651;BME280;40241;52.684;9.758;2022-09-24T06:58:06;101041.50;;;15.58;63.39
5651;BME280;40241;52.684;9.758;2022-09-24T07:00:33;101031.38;;;15.60;62.99
5651;BME280;40241;52.684;9.758;2022-09-24T07:02:58;101038.69;;;15.63;63.03
5651;BME280;40241;52.684;9.758;2022-09-24T07:05:24;101036.16;;;15.65;63.13
5651;BME280;40241;52.684;9.758;2022-09-24T07:07:49;101039.91;;;15.68;63.26
5651;BME280;40241;52.684;9.758;2022-09-24T07:10:15;101036.06;;;15.71;63.05
5651;BME280;40241;52.684;9.758;2022-09-24T07:12:41;101035.31;;;15.70;63.10
5651;BME280;40241;52.684;9.758;2022-09-24T07:15:07;101037.81;;;15.74;63.13
5651;BME280;40241;52.684;9.758;2022-09-24T07:17:33;101038.06;;;15.76;63.05
5651;BME280;40241;52.684;9.758;2022-09-24T07:19:58;101041.81;;;15.79;63.30
5651;BME280;40241;52.684;9.758;2022-09-24T07:22:23;101045.59;;;15.81;63.21
5651;BME280;40241;52.684;9.758;2022-09-24T07:24:49;101038.97;;;15.84;63.19
5651;BME280;40241;52.684;9.758;2022-09-24T07:27:14;101045.75;;;15.89;63.18
5651;BME280;40241;52.684;9.758;2022-09-24T07:29:40;101038.19;;;15.89;63.21
5651;BME280;40241;52.684;9.758;2022-09-24T07:32:05;101039.41;;;15.94;63.16
5651;BME280;40241;52.684;9.758;2022-09-24T07:34:31;101045.41;;;15.98;63.24
5651;BME280;40241;52.684;9.758;2022-09-24T07:36:57;101045.09;;;16.01;63.16
5651;BME280;40241;52.684;9.758;2022-09-24T07:39:23;101045.34;;;16.03;63.28
5651;BME280;40241;52.684;9.758;2022-09-24T07:41:49;101048.59;;;16.07;63.30
5651;BME280;40241;52.684;9.758;2022-09-24T07:44:17;101051.84;;;16.11;63.34
5651;BME280;40241;52.684;9.758;2022-09-24T07:46:50;101047.50;;;16.16;63.35
5651;BME280;40241;52.684;9.758;2022-09-24T07:49:16;101051.25;;;16.18;63.30
5651;BME280;40241;52.684;9.758;2022-09-24T07:51:42;101054.25;;;16.20;63.25
5651;BME280;40241;52.684;9.758;2022-09-24T07:54:08;101053.19;;;16.23;63.23
5651;BME280;40241;52.684;9.758;2022-09-24T07:56:35;101052.16;;;16.26;63.33
5651;BME280;40241;52.684;9.758;2022-09-24T07:59:00;101056.66;;;16.29;63.32
5651;BME280;40241;52.684;9.758;2022-09-24T08:01:25;101054.66;;;16.30;63.16
5651;BME280;40241;52.684;9.758;2022-09-24T08:03:51;101043.75;;;16.32;63.45
5651;BME280;40241;52.684;9.758;2022-09-24T08:06:18;101047.31;;;16.32;63.39
5651;BME280;40241;52.684;9.758;2022-09-24T08:08:44;101053.31;;;16.36;63.33
5651;BME280;40241;52.684;9.758;2022-09-24T08:11:12;101046.72;;;16.39;63.42
5651;BME280;40241;52.684;9.758;2022-09-24T08:13:38;101050.72;;;16.44;63.33
5651;BME280;40241;52.684;9.758;2022-09-24T08:16:04;101050.41;;;16.47;63.36
5651;BME280;40241;52.684;9.758;2022-09-24T08:18:31;101039.78;;;16.52;63.38
5651;BME280;40241;52.684;9.758;2022-09-24T08:20:58;101057.66;;;16.56;63.58
5651;BME280;40241;52.684;9.758;2022-09-24T08:23:26;101052.31;;;16.58;63.52
5651;BME280;40241;52.684;9.758;2022-09-24T08:25:55;101049.25;;;16.62;63.46
5651;BME280;40241;52.684;9.758;2022-09-24T08:28:20;101047.47;;;16.64;63.48
5651;BME280;40241;52.684;9.758;2022-09-24T08:30:46;101056.00;;;16.66;63.47
5651;BME280;40241;52.684;9.758;2022-09-24T08:33:12;101050.91;;;16.70;63.48
5651;BME280;40241;52.684;9.758;2022-09-24T08:35:38;101045.84;;;16.69;63.50
5651;BME280;40241;52.684;9.758;2022-09-24T08:38:07;101041.81;;;16.70;63.54
5651;BME280;40241;52.684;9.758;2022-09-24T08:41:02;101048.41;;;16.67;63.89
5651;BME280;40241;52.684;9.758;2022-09-24T08:44:07;101046.94;;;16.66;63.95
5651;BME280;40241;52.684;9.758;2022-09-24T08:46:39;101056.00;;;16.66;63.50
5651;BME280;40241;52.684;9.758;2022-09-24T08:49:30;101056.00;;;16.66;63.38
5651;BME280;40241;52.684;9.758;2022-09-24T08:54:34;101059.47;;;16.72;63.55
5651;BME280;40241;52.684;9.758;2022-09-24T08:57:04;101059.47;;;16.72;63.69
5651;BME280;40241;52.684;9.758;2022-09-24T08:59:36;101071.03;;;16.76;63.48
5651;BME280;40241;52.684;9.758;2022-09-24T09:02:32;101070.72;;;16.80;63.89
5651;BME280;40241;52.684;9.758;2022-09-24T09:05:17;101072.47;;;16.83;63.79
5651;BME280;40241;52.684;9.758;2022-09-24T09:10:59;101082.00;;;16.87;63.63
5651;BME280;40241;52.684;9.758;2022-09-24T09:13:30;101113.56;;;16.90;63.58
5651;BME280;40241;52.684;9.758;2022-09-24T09:18:33;101078.53;;;17.00;63.65
5651;BME280;40241;52.684;9.758;2022-09-24T09:21:36;101070.97;;;17.00;64.24
5651;BME280;40241;52.684;9.758;2022-09-24T09:24:05;101076.75;;;17.02;63.57
5651;BME280;40241;52.684;9.758;2022-09-24T09:26:37;101073.91;;;17.08;63.71
5651;BME280;40241;52.684;9.758;2022-09-24T09:29:04;101075.81;;;17.13;63.64
5651;BME280;40241;52.684;9.758;2022-09-24T09:31:43;101082.38;;;17.15;63.61
5651;BME280;40241;52.684;9.758;2022-09-24T09:34:27;101072.22;;;17.18;64.17
5651;BME280;40241;52.684;9.758;2022-09-24T09:42:31;101070.31;;;17.26;64.21
5651;BME280;40241;52.684;9.758;2022-09-24T09:45:07;101072.28;;;17.31;63.91
5651;BME280;40241;52.684;9.758;2022-09-24T09:47:48;101077.97;;;17.39;64.05
5651;BME280;40241;52.684;9.758;2022-09-24T09:52:47;101078.31;;;17.48;63.77
5651;BME280;40241;52.684;9.758;2022-09-24T09:55:28;101069.94;;;17.54;64.21
5651;BME280;40241;52.684;9.758;2022-09-24T09:58:10;101067.38;;;17.56;64.41
5651;BME280;40241;52.684;9.758;2022-09-24T10:00:41;101076.44;;;17.56;63.86
5651;BME280;40241;52.684;9.758;2022-09-24T10:06:25;101072.94;;;17.56;64.04
5651;BME280;40241;52.684;9.758;2022-09-24T10:08:51;101066.63;;;17.55;63.63
5651;BME280;40241;52.684;9.758;2022-09-24T10:11:17;101077.31;;;17.51;63.69
5651;BME280;40241;52.684;9.758;2022-09-24T10:13:44;101066.63;;;17.55;63.97
5651;BME280;40241;52.684;9.758;2022-09-24T10:16:11;101070.25;;;17.63;64.08
5651;BME280;40241;52.684;9.758;2022-09-24T10:18:47;101066.03;;;17.75;64.49
5651;BME280;40241;52.684;9.758;2022-09-24T10:21:28;101064.09;;;17.83;64.32
5651;BME280;40241;52.684;9.758;2022-09-24T10:23:59;101068.84;;;17.88;63.93
5651;BME280;40241;52.684;9.758;2022-09-24T10:26:38;101059.19;;;17.89;64.12
5651;BME280;40241;52.684;9.758;2022-09-24T10:29:31;101063.38;;;17.96;63.89
5651;BME280;40241;52.684;9.758;2022-09-24T10:32:25;101063.06;;;18.00;64.03
5651;BME280;40241;52.684;9.758;2022-09-24T10:34:58;101058.69;;;18.04;63.78
5651;BME280;40241;52.684;9.758;2022-09-24T10:37:24;101056.75;;;18.12;63.82
5651;BME280;40241;52.684;9.758;2022-09-24T10:42:24;101051.94;;;18.26;63.47
5651;BME280;40241;52.684;9.758;2022-09-24T10:44:50;101053.34;;;18.32;63.34
5651;BME280;40241;52.684;9.758;2022-09-24T10:47:26;101046.34;;;18.39;63.43
5651;BME280;40241;52.684;9.758;2022-09-24T10:50:42;101053.41;;;18.40;63.22
5651;BME280;40241;52.684;9.758;2022-09-24T10:52:54;101049.34;;;18.41;63.37
5651;BME280;40241;52.684;9.758;2022-09-24T11:01:16;101046.16;;;18.50;63.20
5651;BME280;40241;52.684;9.758;2022-09-24T11:10:05;101047.75;;;18.58;62.84
5651;BME280;40241;52.684;9.758;2022-09-24T11:12:43;101040.13;;;18.59;62.82
5651;BME280;40241;52.684;9.758;2022-09-24T11:18:33;101042.91;;;18.59;63.22
5651;BME280;40241;52.684;9.758;2022-09-24T11:21:16;101045.50;;;18.57;62.69
5651;BME280;40241;52.684;9.758;2022-09-24T11:24:05;101044.75;;;18.56;62.60
5651;BME280;40241;52.684;9.758;2022-09-24T11:26:52;101043.25;;;18.55;63.19
5651;BME280;40241;52.684;9.758;2022-09-24T11:32:32;101036.84;;;18.47;62.86
5651;BME280;40241;52.684;9.758;2022-09-24T11:38:14;101042.63;;;18.49;62.68
5651;BME280;40241;52.684;9.758;2022-09-24T11:44:17;101043.59;;;18.52;62.66
5651;BME280;40241;52.684;9.758;2022-09-24T11:52:20;101038.63;;;18.58;62.43
5651;BME280;40241;52.684;9.758;2022-09-24T11:55:00;101034.75;;;18.61;62.14
5651;BME280;40241;52.684;9.758;2022-09-24T11:57:33;101032.53;;;18.59;62.07
5651;BME280;40241;52.684;9.758;2022-09-24T12:00:04;101036.28;;;18.62;62.26
5651;BME280;40241;52.684;9.758;2022-09-24T12:08:30;101045.06;;;18.40;62.30
5651;BME280;40241;52.684;9.758;2022-09-24T12:11:16;101050.63;;;18.27;62.58
5651;BME280;40241;52.684;9.758;2022-09-24T12:16:41;101049.59;;;18.17;62.84
5651;BME280;40241;52.684;9.758;2022-09-24T12:21:42;101045.91;;;18.09;62.89
5651;BME280;40241;52.684;9.758;2022-09-24T12:24:36;101051.47;;;18.09;63.40
5651;BME280;40241;52.684;9.758;2022-09-24T12:27:09;101048.50;;;18.07;63.01
5651;BME280;40241;52.684;9.758;2022-09-24T12:29:53;101059.19;;;18.03;62.80
5651;BME280;40241;52.684;9.758;2022-09-24T12:32:51;101052.78;;;17.94;63.00
5651;BME280;40241;52.684;9.758;2022-09-24T12:35:39;101056.41;;;17.89;63.21
5651;BME280;40241;52.684;9.758;2022-09-24T12:43:21;101048.03;;;17.76;63.17
5651;BME280;40241;52.684;9.758;2022-09-24T12:45:59;101048.03;;;17.76;63.10
5651;BME280;40241;52.684;9.758;2022-09-24T12:48:27;101049.53;;;17.77;63.08
5651;BME280;40241;52.684;9.758;2022-09-24T12:50:58;101046.97;;;17.79;63.17
5651;BME280;40241;52.684;9.758;2022-09-24T12:53:31;101047.19;;;17.81;63.19
5651;BME280;40241;52.684;9.758;2022-09-24T12:55:58;101045.16;;;17.82;63.19
5651;BME280;40241;52.684;9.758;2022-09-24T12:58:35;101046.09;;;17.84;63.23
5651;BME280;40241;52.684;9.758;2022-09-24T13:01:07;101038.50;;;17.85;63.37
5651;BME280;40241;52.684;9.758;2022-09-24T13:03:40;101042.81;;;17.86;63.50
5651;BME280;40241;52.684;9.758;2022-09-24T13:08:53;101032.19;;;17.84;63.38
5651;BME280;40241;52.684;9.758;2022-09-24T13:11:25;101033.50;;;17.83;63.47
5651;BME280;40241;52.684;9.758;2022-09-24T13:14:16;101030.50;;;17.81;63.63
5651;BME280;40241;52.684;9.758;2022-09-24T13:16:45;101029.72;;;17.81;63.40
5651;BME280;40241;52.684;9.758;2022-09-24T13:19:40;101025.47;;;17.80;64.00
5651;BME280;40241;52.684;9.758;2022-09-24T13:22:36;101028.25;;;17.80;63.72
5651;BME280;40241;52.684;9.758;2022-09-24T13:27:41;101027.91;;;17.83;63.70
5651;BME280;40241;52.684;9.758;2022-09-24T13:30:18;101029.41;;;17.84;63.88
5651;BME280;40241;52.684;9.758;2022-09-24T13:32:56;101019.78;;;17.85;63.85
5651;BME280;40241;52.684;9.758;2022-09-24T13:35:31;101028.13;;;17.85;63.71
5651;BME280;40241;52.684;9.758;2022-09-24T13:38:19;101021.81;;;17.85;64.23
5651;BME280;40241;52.684;9.758;2022-09-24T13:41:01;101017.00;;;17.85;64.19
5651;BME280;40241;52.684;9.758;2022-09-24T13:43:47;101017.53;;;17.84;64.18
5651;BME280;40241;52.684;9.758;2022-09-24T13:46:15;101016.03;;;17.83;63.86
5651;BME280;40241;52.684;9.758;2022-09-24T13:48:53;101015.50;;;17.84;64.08
5651;BME280;40241;52.684;9.758;2022-09-24T13:51:23;101014.22;;;17.85;63.74
5651;BME280;40241;52.684;9.758;2022-09-24T13:54:06;101015.72;;;17.86;64.26
5651;BME280;40241;52.684;9.758;2022-09-24T13:56:37;101010.69;;;17.85;63.88
5651;BME280;40241;52.684;9.758;2022-09-24T13:59:05;101017.00;;;17.85;63.87
5651;BME280;40241;52.684;9.758;2022-09-24T14:01:38;101017.75;;;17.86;63.95
5651;BME280;40241;52.684;9.758;2022-09-24T14:04:13;101016.78;;;17.83;63.95
5651;BME280;40241;52.684;9.758;2022-09-24T14:06:43;101007.69;;;17.83;64.13
5651;BME280;40241;52.684;9.758;2022-09-24T14:09:31;101008.44;;;17.83;64.75
5651;BME280;40241;52.684;9.758;2022-09-24T14:11:59;101006.94;;;17.82;64.19
5651;BME280;40241;52.684;9.758;2022-09-24T14:14:28;101004.34;;;17.84;64.11
5651;BME280;40241;52.684;9.758;2022-09-24T14:17:08;101004.59;;;17.86;64.61
5651;BME280;40241;52.684;9.758;2022-09-24T14:19:35;101002.31;;;17.85;64.13
5651;BME280;40241;52.684;9.758;2022-09-24T14:22:02;101005.31;;;17.87;64.33
5651;BME280;40241;52.684;9.758;2022-09-24T14:24:39;101013.88;;;17.89;64.31
5651;BME280;40241;52.684;9.758;2022-09-24T14:27:11;101024.09;;;17.86;64.28
5651;BME280;40241;52.684;9.758;2022-09-24T14:32:32;101003.28;;;17.87;64.66
5651;BME280;40241;52.684;9.758;2022-09-24T14:35:03;101005.31;;;17.87;64.45
5651;BME280;40241;52.684;9.758;2022-09-24T14:37:35;101008.09;;;17.87;64.50
5651;BME280;40241;52.684;9.758;2022-09-24T14:40:14;101001.06;;;17.86;64.74
5651;BME280;40241;52.684;9.758;2022-09-24T14:42:43;101005.66;;;17.83;64.51
5651;BME280;40241;52.684;9.758;2022-09-24T14:45:18;101008.44;;;17.83;64.75
5651;BME280;40241;52.684;9.758;2022-09-24T14:47:44;101006.19;;;17.82;64.67
5651;BME280;40241;52.684;9.758;2022-09-24T14:50:45;101004.47;;;17.79;65.17